KJMR

Details ICAO KJMR
Name MORA MUNI
Region United States
Timezone America/Chicago (UTC-6.0)
Plans Departing 1
Arriving 0
Stats Elevation 1,012 ft / 308 m (AMSL)
Location 45.885470° -93.272046°
Runways 2
Magnetic Variation 0.114° E
Sunrise 2017-12-17 13:50:47 UTC / 2017-12-17 07:50:47 Local
Sunset 2017-12-17 22:30:37 UTC / 2017-12-17 16:30:37 Local
Advertisement - Login to hide

Runways

ID Width Length Bearing (true) Bearing (mag) Surface Threshold Offset Overrun Length
11 200 ft / 61 m 2,446 ft / 746 m 116.58° 116.47° Dirt 0 ft / 0 m 0 ft / 0 m
17 75 ft / 23 m 4,000 ft / 1,219 m 171.74° 171.63° Asphalt 0 ft / 0 m 0 ft / 0 m
29 200 ft / 61 m 2,446 ft / 746 m 296.59° 296.48° Dirt 0 ft / 0 m 0 ft / 0 m
35 75 ft / 23 m 4,000 ft / 1,219 m 351.75° 351.64° Asphalt 0 ft / 0 m 0 ft / 0 m

Map

Weather


0- 5 10 15 20 25 30 35+ Temperature / ° C

Clouds and Precipitation
Forecast for 2017-12-17 12:00 UTC. Updated an hour ago

Ground ~20,000 ft ~40,000 ft Winds

METAR

KJMR 170755Z AUTO 00000KT 10SM OVC012 M06/M08 A3011 RMK AO2

TAF

Not found

Frequencies

Unicom 122.90 MHz CTAF
Warning: Do not use this data for real-world aviation or navigation. No guarantee of current accuracy is given.